sensor_id;sensor_type;location;lat;lon;timestamp;pressure;altitude;pressure_sealevel;temperature;humidity
63568;BME280;49715;42.386;20.434;2023-02-28T00:00:01;97891.84;;;5.53;67.11
63568;BME280;49715;42.386;20.434;2023-02-28T00:02:37;97895.31;;;5.54;66.79
63568;BME280;49715;42.386;20.434;2023-02-28T00:05:08;97891.75;;;5.55;66.72
63568;BME280;49715;42.386;20.434;2023-02-28T00:07:36;97898.53;;;5.57;66.73
63568;BME280;49715;42.386;20.434;2023-02-28T00:10:06;97901.03;;;5.59;66.86
63568;BME280;49715;42.386;20.434;2023-02-28T00:12:39;97906.28;;;5.59;66.73
63568;BME280;49715;42.386;20.434;2023-02-28T00:15:09;97911.50;;;5.59;66.55
63568;BME280;49715;42.386;20.434;2023-02-28T00:17:42;97908.06;;;5.58;66.76
63568;BME280;49715;42.386;20.434;2023-02-28T00:20:12;97908.88;;;5.59;66.58
63568;BME280;49715;42.386;20.434;2023-02-28T00:22:45;97909.22;;;5.54;66.62
63568;BME280;49715;42.386;20.434;2023-02-28T00:25:16;97907.66;;;5.52;66.41
63568;BME280;49715;42.386;20.434;2023-02-28T00:27:44;97896.78;;;5.45;66.66
63568;BME280;49715;42.386;20.434;2023-02-28T00:30:15;97898.25;;;5.49;66.75
63568;BME280;49715;42.386;20.434;2023-02-28T00:32:49;97885.59;;;5.43;66.57
63568;BME280;49715;42.386;20.434;2023-02-28T00:35:22;97899.72;;;5.40;66.69
63568;BME280;49715;42.386;20.434;2023-02-28T00:37:57;97895.22;;;5.30;66.93
63568;BME280;49715;42.386;20.434;2023-02-28T00:40:29;97897.53;;;5.22;68.38
63568;BME280;49715;42.386;20.434;2023-02-28T00:42:59;97901.72;;;5.24;67.14
63568;BME280;49715;42.386;20.434;2023-02-28T00:45:27;97900.66;;;5.27;67.20
63568;BME280;49715;42.386;20.434;2023-02-28T00:47:55;97891.16;;;5.26;66.90
63568;BME280;49715;42.386;20.434;2023-02-28T00:50:23;97902.97;;;5.31;66.79
63568;BME280;49715;42.386;20.434;2023-02-28T00:52:53;97900.56;;;5.28;66.62
63568;BME280;49715;42.386;20.434;2023-02-28T00:55:20;97910.59;;;5.34;66.64
63568;BME280;49715;42.386;20.434;2023-02-28T00:57:53;97894.59;;;5.26;66.67
63568;BME280;49715;42.386;20.434;2023-02-28T01:00:20;97905.50;;;5.33;66.80
63568;BME280;49715;42.386;20.434;2023-02-28T01:02:46;97898.56;;;5.32;66.79
63568;BME280;49715;42.386;20.434;2023-02-28T01:05:14;97900.03;;;5.36;66.80
63568;BME280;49715;42.386;20.434;2023-02-28T01:07:40;97898.88;;;5.40;66.89
63568;BME280;49715;42.386;20.434;2023-02-28T01:10:08;97887.91;;;5.35;66.69
63568;BME280;49715;42.386;20.434;2023-02-28T01:12:34;97877.78;;;5.30;66.60
63568;BME280;49715;42.386;20.434;2023-02-28T01:15:01;97891.97;;;5.39;66.83
63568;BME280;49715;42.386;20.434;2023-02-28T01:17:27;97894.28;;;5.43;66.50
63568;BME280;49715;42.386;20.434;2023-02-28T01:19:55;97897.59;;;5.46;66.75
63568;BME280;49715;42.386;20.434;2023-02-28T01:22:24;97892.63;;;5.42;66.29
63568;BME280;49715;42.386;20.434;2023-02-28T01:24:51;97892.19;;;5.49;66.56
63568;BME280;49715;42.386;20.434;2023-02-28T01:27:17;97876.28;;;5.52;66.39
63568;BME280;49715;42.386;20.434;2023-02-28T01:29:44;97879.72;;;5.52;66.54
63568;BME280;49715;42.386;20.434;2023-02-28T01:32:10;97868.31;;;5.53;66.43
63568;BME280;49715;42.386;20.434;2023-02-28T01:34:37;97861.84;;;5.46;66.26
63568;BME280;49715;42.386;20.434;2023-02-28T01:37:03;97876.59;;;5.47;66.20
63568;BME280;49715;42.386;20.434;2023-02-28T01:39:30;97871.69;;;5.42;66.04
63568;BME280;49715;42.386;20.434;2023-02-28T01:41:56;97872.63;;;5.41;66.82
63568;BME280;49715;42.386;20.434;2023-02-28T01:44:55;97879.44;;;5.44;66.48
63568;BME280;49715;42.386;20.434;2023-02-28T01:47:23;97873.56;;;5.40;66.40
63568;BME280;49715;42.386;20.434;2023-02-28T01:49:52;97877.13;;;5.39;66.18
63568;BME280;49715;42.386;20.434;2023-02-28T01:52:19;97866.78;;;5.38;66.30
63568;BME280;49715;42.386;20.434;2023-02-28T01:54:47;97867.84;;;5.35;67.17
63568;BME280;49715;42.386;20.434;2023-02-28T01:57:21;97887.56;;;5.52;66.55
63568;BME280;49715;42.386;20.434;2023-02-28T02:00:03;97884.84;;;5.54;66.29
63568;BME280;49715;42.386;20.434;2023-02-28T02:02:39;97883.81;;;5.56;66.45
63568;BME280;49715;42.386;20.434;2023-02-28T02:05:20;97892.56;;;5.68;66.10
63568;BME280;49715;42.386;20.434;2023-02-28T02:07:50;97882.94;;;5.68;66.26
63568;BME280;49715;42.386;20.434;2023-02-28T02:10:30;97877.50;;;5.72;66.27
63568;BME280;49715;42.386;20.434;2023-02-28T02:15:42;97886.44;;;5.80;66.00
63568;BME280;49715;42.386;20.434;2023-02-28T02:18:43;97884.56;;;5.82;66.18
63568;BME280;49715;42.386;20.434;2023-02-28T02:26:50;97886.56;;;5.91;66.03
63568;BME280;49715;42.386;20.434;2023-02-28T02:41:23;97885.06;;;5.87;65.67
63568;BME280;49715;42.386;20.434;2023-02-28T02:43:58;97881.63;;;5.87;65.55
63568;BME280;49715;42.386;20.434;2023-02-28T02:46:34;97882.25;;;5.90;65.57
63568;BME280;49715;42.386;20.434;2023-02-28T02:49:06;97887.25;;;5.93;65.59
63568;BME280;49715;42.386;20.434;2023-02-28T02:51:36;97895.25;;;5.92;65.47
63568;BME280;49715;42.386;20.434;2023-02-28T02:54:23;97897.53;;;5.97;65.34
63568;BME280;49715;42.386;20.434;2023-02-28T02:56:57;97883.38;;;5.99;65.19
63568;BME280;49715;42.386;20.434;2023-02-28T02:59:27;97889.75;;;5.95;65.35
63568;BME280;49715;42.386;20.434;2023-02-28T03:01:59;97896.25;;;6.02;65.22
63568;BME280;49715;42.386;20.434;2023-02-28T03:04:32;97898.66;;;6.05;65.31
63568;BME280;49715;42.386;20.434;2023-02-28T03:06:59;97900.53;;;6.03;65.45
63568;BME280;49715;42.386;20.434;2023-02-28T03:09:26;97890.63;;;5.96;65.39
63568;BME280;49715;42.386;20.434;2023-02-28T03:11:55;97903.78;;;5.94;65.33
63568;BME280;49715;42.386;20.434;2023-02-28T03:15:01;97911.03;;;5.90;65.26
63568;BME280;49715;42.386;20.434;2023-02-28T03:17:42;97919.19;;;5.86;65.17
63568;BME280;49715;42.386;20.434;2023-02-28T03:20:38;97921.91;;;5.84;65.37
63568;BME280;49715;42.386;20.434;2023-02-28T03:26:08;97930.38;;;5.88;65.28
63568;BME280;49715;42.386;20.434;2023-02-28T03:28:51;97924.19;;;5.89;65.07
63568;BME280;49715;42.386;20.434;2023-02-28T03:31:32;97915.50;;;5.88;65.14
63568;BME280;49715;42.386;20.434;2023-02-28T03:34:42;97933.41;;;5.94;65.24
63568;BME280;49715;42.386;20.434;2023-02-28T03:37:16;97913.31;;;5.95;65.20
63568;BME280;49715;42.386;20.434;2023-02-28T03:39:47;97923.69;;;5.97;65.23
63568;BME280;49715;42.386;20.434;2023-02-28T03:42:19;97920.94;;;5.98;64.91
63568;BME280;49715;42.386;20.434;2023-02-28T03:45:28;97925.56;;;5.94;65.05
63568;BME280;49715;42.386;20.434;2023-02-28T03:50:37;97929.97;;;5.94;64.99
63568;BME280;49715;42.386;20.434;2023-02-28T03:55:45;97936.88;;;5.82;64.93
63568;BME280;49715;42.386;20.434;2023-02-28T04:03:47;97943.72;;;5.72;65.16
63568;BME280;49715;42.386;20.434;2023-02-28T04:06:20;97944.75;;;5.69;65.02
63568;BME280;49715;42.386;20.434;2023-02-28T04:08:48;97938.06;;;5.65;65.38
63568;BME280;49715;42.386;20.434;2023-02-28T04:13:40;97939.22;;;5.61;65.47
63568;BME280;49715;42.386;20.434;2023-02-28T04:16:07;97941.09;;;5.59;65.68
63568;BME280;49715;42.386;20.434;2023-02-28T04:18:39;97944.78;;;5.57;65.62
63568;BME280;49715;42.386;20.434;2023-02-28T04:21:06;97943.50;;;5.62;65.54
63568;BME280;49715;42.386;20.434;2023-02-28T04:23:33;97924.56;;;5.59;65.63
63568;BME280;49715;42.386;20.434;2023-02-28T04:25:59;97952.06;;;5.77;65.62
63568;BME280;49715;42.386;20.434;2023-02-28T04:28:26;97943.97;;;5.80;65.51
63568;BME280;49715;42.386;20.434;2023-02-28T04:30:57;97937.59;;;5.84;65.38
63568;BME280;49715;42.386;20.434;2023-02-28T04:33:24;97932.88;;;5.89;65.63
63568;BME280;49715;42.386;20.434;2023-02-28T04:36:07;97944.81;;;5.93;65.46
63568;BME280;49715;42.386;20.434;2023-02-28T04:38:36;97941.16;;;5.96;65.41
63568;BME280;49715;42.386;20.434;2023-02-28T04:41:04;97933.09;;;5.99;65.19
63568;BME280;49715;42.386;20.434;2023-02-28T04:43:31;97930.72;;;5.96;65.25
63568;BME280;49715;42.386;20.434;2023-02-28T04:46:05;97939.38;;;5.97;65.06
63568;BME280;49715;42.386;20.434;2023-02-28T04:48:33;97940.44;;;5.94;65.50
63568;BME280;49715;42.386;20.434;2023-02-28T04:51:08;97944.81;;;5.93;65.24
63568;BME280;49715;42.386;20.434;2023-02-28T04:53:37;97946.06;;;6.01;65.29
63568;BME280;49715;42.386;20.434;2023-02-28T04:56:04;97928.91;;;5.97;65.24
63568;BME280;49715;42.386;20.434;2023-02-28T04:58:34;97934.22;;;6.08;65.21
63568;BME280;49715;42.386;20.434;2023-02-28T05:01:13;97929.09;;;6.06;65.16
63568;BME280;49715;42.386;20.434;2023-02-28T05:03:42;97930.75;;;6.07;65.26
63568;BME280;49715;42.386;20.434;2023-02-28T05:06:09;97936.84;;;6.08;65.26
63568;BME280;49715;42.386;20.434;2023-02-28T05:08:36;97931.81;;;6.05;65.25
63568;BME280;49715;42.386;20.434;2023-02-28T05:11:05;97944.97;;;6.16;65.05
63568;BME280;49715;42.386;20.434;2023-02-28T05:13:32;97944.75;;;6.19;65.11
63568;BME280;49715;42.386;20.434;2023-02-28T05:15:58;97948.94;;;6.22;65.28
63568;BME280;49715;42.386;20.434;2023-02-28T05:18:25;97934.38;;;6.17;65.20
63568;BME280;49715;42.386;20.434;2023-02-28T05:20:51;97951.44;;;6.23;65.09
63568;BME280;49715;42.386;20.434;2023-02-28T05:23:19;97941.91;;;6.22;65.18
63568;BME280;49715;42.386;20.434;2023-02-28T05:25:48;97929.47;;;6.13;65.11
63568;BME280;49715;42.386;20.434;2023-02-28T05:28:15;97956.03;;;6.19;65.51
63568;BME280;49715;42.386;20.434;2023-02-28T05:30:41;97950.09;;;6.17;65.32
63568;BME280;49715;42.386;20.434;2023-02-28T05:33:11;97947.91;;;6.11;65.11
63568;BME280;49715;42.386;20.434;2023-02-28T05:35:39;97968.75;;;6.13;65.24
63568;BME280;49715;42.386;20.434;2023-02-28T05:38:06;97957.25;;;6.03;65.39
63568;BME280;49715;42.386;20.434;2023-02-28T05:40:33;97971.81;;;6.07;65.37
63568;BME280;49715;42.386;20.434;2023-02-28T05:42:59;97987.19;;;6.11;65.43
63568;BME280;49715;42.386;20.434;2023-02-28T05:45:26;97985.19;;;6.15;65.67
63568;BME280;49715;42.386;20.434;2023-02-28T05:47:55;97985.06;;;6.16;65.60
63568;BME280;49715;42.386;20.434;2023-02-28T05:50:22;97980.34;;;6.22;65.49
63568;BME280;49715;42.386;20.434;2023-02-28T05:52:52;97973.66;;;6.17;65.66
63568;BME280;49715;42.386;20.434;2023-02-28T05:55:19;97984.00;;;6.19;65.70
63568;BME280;49715;42.386;20.434;2023-02-28T05:57:45;97993.81;;;6.28;65.91
63568;BME280;49715;42.386;20.434;2023-02-28T06:00:13;97990.59;;;6.25;65.82
63568;BME280;49715;42.386;20.434;2023-02-28T06:02:41;97987.25;;;6.23;65.46
63568;BME280;49715;42.386;20.434;2023-02-28T06:05:13;98006.06;;;6.28;65.45
63568;BME280;49715;42.386;20.434;2023-02-28T06:07:40;98005.13;;;6.29;65.64
63568;BME280;49715;42.386;20.434;2023-02-28T06:10:07;97993.31;;;6.23;65.62
63568;BME280;49715;42.386;20.434;2023-02-28T06:12:33;97997.25;;;6.29;66.05
63568;BME280;49715;42.386;20.434;2023-02-28T06:15:00;97995.06;;;6.35;66.12
63568;BME280;49715;42.386;20.434;2023-02-28T06:17:26;98007.00;;;6.39;65.87
63568;BME280;49715;42.386;20.434;2023-02-28T06:19:53;98010.44;;;6.40;65.69
63568;BME280;49715;42.386;20.434;2023-02-28T06:22:19;98007.00;;;6.39;65.77
63568;BME280;49715;42.386;20.434;2023-02-28T06:24:46;98005.41;;;6.37;65.81
63568;BME280;49715;42.386;20.434;2023-02-28T06:27:12;98005.28;;;6.38;65.75
63568;BME280;49715;42.386;20.434;2023-02-28T06:29:38;98015.34;;;6.44;66.02
63568;BME280;49715;42.386;20.434;2023-02-28T06:32:12;98006.41;;;6.47;65.72
63568;BME280;49715;42.386;20.434;2023-02-28T06:34:40;98008.91;;;6.49;65.78
63568;BME280;49715;42.386;20.434;2023-02-28T06:37:07;98012.16;;;6.52;65.92
63568;BME280;49715;42.386;20.434;2023-02-28T06:39:33;98002.75;;;6.50;65.91
63568;BME280;49715;42.386;20.434;2023-02-28T06:42:00;98000.72;;;6.53;65.95
63568;BME280;49715;42.386;20.434;2023-02-28T06:44:28;98008.03;;;6.61;65.82
63568;BME280;49715;42.386;20.434;2023-02-28T06:47:10;98012.94;;;6.65;65.93
63568;BME280;49715;42.386;20.434;2023-02-28T06:49:39;98009.25;;;6.68;65.76
63568;BME280;49715;42.386;20.434;2023-02-28T06:52:05;98004.75;;;6.70;65.76
63568;BME280;49715;42.386;20.434;2023-02-28T06:54:33;98023.47;;;6.77;65.46
63568;BME280;49715;42.386;20.434;2023-02-28T06:57:00;98030.72;;;6.73;65.47
63568;BME280;49715;42.386;20.434;2023-02-28T06:59:27;98028.53;;;6.67;65.40
63568;BME280;49715;42.386;20.434;2023-02-28T07:01:53;98027.94;;;6.63;65.77
63568;BME280;49715;42.386;20.434;2023-02-28T07:04:25;98025.59;;;6.71;65.82
63568;BME280;49715;42.386;20.434;2023-02-28T07:06:52;98020.69;;;6.67;65.78
63568;BME280;49715;42.386;20.434;2023-02-28T07:09:18;98012.22;;;6.63;65.86
63568;BME280;49715;42.386;20.434;2023-02-28T07:11:45;98023.31;;;6.67;65.86
63568;BME280;49715;42.386;20.434;2023-02-28T07:14:11;98025.72;;;6.70;65.81
63568;BME280;49715;42.386;20.434;2023-02-28T07:16:38;98026.66;;;6.69;65.99
63568;BME280;49715;42.386;20.434;2023-02-28T07:19:05;98036.06;;;6.71;65.91
63568;BME280;49715;42.386;20.434;2023-02-28T07:21:32;98043.72;;;6.75;65.81
63568;BME280;49715;42.386;20.434;2023-02-28T07:23:58;98039.44;;;6.74;65.81
63568;BME280;49715;42.386;20.434;2023-02-28T07:26:25;98044.88;;;6.70;65.94
63568;BME280;49715;42.386;20.434;2023-02-28T07:28:51;98041.94;;;6.75;65.93
63568;BME280;49715;42.386;20.434;2023-02-28T07:31:19;98027.16;;;6.74;65.56
63568;BME280;49715;42.386;20.434;2023-02-28T07:33:46;98039.69;;;6.82;65.72
63568;BME280;49715;42.386;20.434;2023-02-28T07:36:15;98033.28;;;6.86;66.00
63568;BME280;49715;42.386;20.434;2023-02-28T07:38:45;98042.59;;;6.90;65.58
63568;BME280;49715;42.386;20.434;2023-02-28T07:41:15;98042.22;;;6.83;65.78
63568;BME280;49715;42.386;20.434;2023-02-28T07:43:43;98035.19;;;6.84;65.87
63568;BME280;49715;42.386;20.434;2023-02-28T07:46:13;98039.94;;;6.79;66.00
63568;BME280;49715;42.386;20.434;2023-02-28T07:48:41;98018.34;;;6.75;66.04
63568;BME280;49715;42.386;20.434;2023-02-28T07:51:08;98036.78;;;6.97;65.94
63568;BME280;49715;42.386;20.434;2023-02-28T07:53:35;98039.81;;;7.04;66.15
63568;BME280;49715;42.386;20.434;2023-02-28T07:56:02;98028.38;;;7.16;65.74
63568;BME280;49715;42.386;20.434;2023-02-28T07:58:29;98036.84;;;7.09;66.04
63568;BME280;49715;42.386;20.434;2023-02-28T08:01:07;98040.91;;;7.13;65.82
63568;BME280;49715;42.386;20.434;2023-02-28T08:03:35;98042.94;;;7.20;65.57
63568;BME280;49715;42.386;20.434;2023-02-28T08:06:04;98027.22;;;7.20;65.50
63568;BME280;49715;42.386;20.434;2023-02-28T08:08:31;98037.84;;;7.30;65.68
63568;BME280;49715;42.386;20.434;2023-02-28T08:10:59;98039.91;;;7.38;65.24
63568;BME280;49715;42.386;20.434;2023-02-28T08:13:30;98036.09;;;7.42;64.79
63568;BME280;49715;42.386;20.434;2023-02-28T08:15:57;98037.03;;;7.41;64.90
63568;BME280;49715;42.386;20.434;2023-02-28T08:18:24;98028.59;;;7.37;64.82
63568;BME280;49715;42.386;20.434;2023-02-28T08:20:54;98036.19;;;7.40;64.86
63568;BME280;49715;42.386;20.434;2023-02-28T08:23:20;98026.31;;;7.44;64.83
63568;BME280;49715;42.386;20.434;2023-02-28T08:25:54;98035.50;;;7.49;64.66
63568;BME280;49715;42.386;20.434;2023-02-28T08:28:22;98032.41;;;7.44;64.89
63568;BME280;49715;42.386;20.434;2023-02-28T08:30:49;98026.44;;;7.42;64.88
63568;BME280;49715;42.386;20.434;2023-02-28T08:33:16;98021.41;;;7.39;65.19
63568;BME280;49715;42.386;20.434;2023-02-28T08:35:44;98028.47;;;7.39;65.12
63568;BME280;49715;42.386;20.434;2023-02-28T08:38:13;98032.13;;;7.36;65.13
63568;BME280;49715;42.386;20.434;2023-02-28T08:40:40;98037.97;;;7.29;65.11
63568;BME280;49715;42.386;20.434;2023-02-28T08:43:08;98021.97;;;7.20;65.21
63568;BME280;49715;42.386;20.434;2023-02-28T08:45:34;98035.56;;;7.26;65.46
63568;BME280;49715;42.386;20.434;2023-02-28T08:48:01;98030.31;;;7.26;65.47
63568;BME280;49715;42.386;20.434;2023-02-28T08:50:27;98037.84;;;7.30;65.67
63568;BME280;49715;42.386;20.434;2023-02-28T08:53:00;98036.44;;;7.37;65.53
63568;BME280;49715;42.386;20.434;2023-02-28T08:55:30;98022.13;;;7.41;65.61
63568;BME280;49715;42.386;20.434;2023-02-28T08:58:00;98021.44;;;7.51;65.29
63568;BME280;49715;42.386;20.434;2023-02-28T09:00:28;98021.91;;;7.56;65.22
63568;BME280;49715;42.386;20.434;2023-02-28T09:02:55;98026.72;;;7.62;65.23
63568;BME280;49715;42.386;20.434;2023-02-28T09:05:22;98022.03;;;7.65;65.27
63568;BME280;49715;42.386;20.434;2023-02-28T09:08:06;98023.63;;;7.68;65.47
63568;BME280;49715;42.386;20.434;2023-02-28T09:10:35;98027.69;;;7.72;65.10
63568;BME280;49715;42.386;20.434;2023-02-28T09:13:06;98021.25;;;7.76;65.17
63568;BME280;49715;42.386;20.434;2023-02-28T09:16:02;98003.34;;;7.70;64.91
63568;BME280;49715;42.386;20.434;2023-02-28T09:18:30;97991.78;;;7.61;65.08
63568;BME280;49715;42.386;20.434;2023-02-28T09:20:57;98020.16;;;7.79;65.18
63568;BME280;49715;42.386;20.434;2023-02-28T09:23:24;98033.16;;;7.80;65.13
63568;BME280;49715;42.386;20.434;2023-02-28T09:25:53;98032.44;;;7.89;65.02
63568;BME280;49715;42.386;20.434;2023-02-28T09:28:21;98022.41;;;7.94;64.90
63568;BME280;49715;42.386;20.434;2023-02-28T09:30:50;98030.06;;;7.97;64.65
63568;BME280;49715;42.386;20.434;2023-02-28T09:33:25;98022.06;;;7.99;64.80
63568;BME280;49715;42.386;20.434;2023-02-28T09:36:00;98029.59;;;8.04;64.46
63568;BME280;49715;42.386;20.434;2023-02-28T09:38:27;98032.94;;;8.06;64.53
63568;BME280;49715;42.386;20.434;2023-02-28T09:41:14;98020.75;;;8.05;64.66
63568;BME280;49715;42.386;20.434;2023-02-28T09:43:46;98030.78;;;8.11;64.67
63568;BME280;49715;42.386;20.434;2023-02-28T09:46:37;98026.59;;;8.08;64.53
63568;BME280;49715;42.386;20.434;2023-02-28T09:49:18;98018.38;;;8.13;64.50
63568;BME280;49715;42.386;20.434;2023-02-28T09:54:28;98020.25;;;8.22;64.48
63568;BME280;49715;42.386;20.434;2023-02-28T10:03:05;98026.47;;;8.21;64.11
63568;BME280;49715;42.386;20.434;2023-02-28T10:08:32;98014.53;;;8.28;63.99
63568;BME280;49715;42.386;20.434;2023-02-28T10:11:03;97999.25;;;8.22;63.96
63568;BME280;49715;42.386;20.434;2023-02-28T10:14:25;98004.66;;;8.20;64.03
63568;BME280;49715;42.386;20.434;2023-02-28T10:17:14;97984.69;;;8.18;63.97
63568;BME280;49715;42.386;20.434;2023-02-28T10:19:53;97994.47;;;8.27;63.76
63568;BME280;49715;42.386;20.434;2023-02-28T10:22:24;97990.19;;;8.26;63.75
63568;BME280;49715;42.386;20.434;2023-02-28T10:24:55;97994.34;;;8.29;63.79
63568;BME280;49715;42.386;20.434;2023-02-28T10:27:30;97987.66;;;8.24;63.71
63568;BME280;49715;42.386;20.434;2023-02-28T10:30:02;97990.41;;;8.23;63.62
63568;BME280;49715;42.386;20.434;2023-02-28T10:32:34;97995.63;;;8.34;63.58
63568;BME280;49715;42.386;20.434;2023-02-28T10:37:44;97982.16;;;8.39;63.60
63568;BME280;49715;42.386;20.434;2023-02-28T10:49:05;97991.97;;;8.25;63.47
63568;BME280;49715;42.386;20.434;2023-02-28T10:51:48;97998.66;;;8.30;63.23
63568;BME280;49715;42.386;20.434;2023-02-28T10:54:23;97990.41;;;8.23;63.41
63568;BME280;49715;42.386;20.434;2023-02-28T11:03:01;97915.06;;;7.91;63.25
63568;BME280;49715;42.386;20.434;2023-02-28T11:05:55;97953.06;;;8.19;63.07
63568;BME280;49715;42.386;20.434;2023-02-28T11:08:21;97970.34;;;8.33;63.06
63568;BME280;49715;42.386;20.434;2023-02-28T11:10:57;97943.66;;;8.17;63.03
63568;BME280;49715;42.386;20.434;2023-02-28T11:13:36;97945.78;;;8.23;63.10
63568;BME280;49715;42.386;20.434;2023-02-28T11:16:10;97954.38;;;8.25;62.96
63568;BME280;49715;42.386;20.434;2023-02-28T11:21:16;97929.88;;;8.24;63.29
63568;BME280;49715;42.386;20.434;2023-02-28T11:23:44;97922.75;;;8.26;63.04
63568;BME280;49715;42.386;20.434;2023-02-28T11:26:13;97938.00;;;8.33;62.94
63568;BME280;49715;42.386;20.434;2023-02-28T11:29:03;97935.72;;;8.50;63.03
63568;BME280;49715;42.386;20.434;2023-02-28T11:31:35;97930.53;;;8.60;63.03
63568;BME280;49715;42.386;20.434;2023-02-28T11:34:23;97927.53;;;8.65;62.72
63568;BME280;49715;42.386;20.434;2023-02-28T11:36:51;97924.53;;;8.69;62.71
63568;BME280;49715;42.386;20.434;2023-02-28T11:39:19;97914.47;;;8.74;62.65
63568;BME280;49715;42.386;20.434;2023-02-28T11:42:01;97921.44;;;8.85;62.60
63568;BME280;49715;42.386;20.434;2023-02-28T11:45:11;97927.41;;;8.87;62.50
63568;BME280;49715;42.386;20.434;2023-02-28T11:56:17;97928.97;;;8.90;62.17
63568;BME280;49715;42.386;20.434;2023-02-28T11:59:08;97932.78;;;8.86;62.02
63568;BME280;49715;42.386;20.434;2023-02-28T12:02:03;97926.78;;;8.74;62.03
63568;BME280;49715;42.386;20.434;2023-02-28T12:15:11;97906.88;;;8.60;62.14
63568;BME280;49715;42.386;20.434;2023-02-28T12:18:03;97905.78;;;8.63;61.99
63568;BME280;49715;42.386;20.434;2023-02-28T12:21:18;97893.22;;;8.66;62.12
63568;BME280;49715;42.386;20.434;2023-02-28T12:23:51;97888.28;;;8.73;62.08
63568;BME280;49715;42.386;20.434;2023-02-28T12:31:59;97867.09;;;8.65;61.74
63568;BME280;49715;42.386;20.434;2023-02-28T12:34:55;97869.19;;;8.71;61.69
63568;BME280;49715;42.386;20.434;2023-02-28T12:40:23;97886.25;;;8.76;61.72
63568;BME280;49715;42.386;20.434;2023-02-28T12:43:02;97887.81;;;8.79;61.68
63568;BME280;49715;42.386;20.434;2023-02-28T12:45:41;97872.13;;;8.77;61.61
63568;BME280;49715;42.386;20.434;2023-02-28T12:48:15;97886.91;;;8.90;61.37
63568;BME280;49715;42.386;20.434;2023-02-28T12:50:46;97873.47;;;8.93;61.42
63568;BME280;49715;42.386;20.434;2023-02-28T12:56:47;97869.72;;;8.86;61.40
63568;BME280;49715;42.386;20.434;2023-02-28T12:59:44;97866.50;;;8.82;61.30
63568;BME280;49715;42.386;20.434;2023-02-28T13:08:49;97862.38;;;8.68;61.54
63568;BME280;49715;42.386;20.434;2023-02-28T13:11:31;97862.38;;;8.68;61.52
63568;BME280;49715;42.386;20.434;2023-02-28T13:14:03;97849.78;;;8.62;61.61
63568;BME280;49715;42.386;20.434;2023-02-28T13:17:00;97847.53;;;8.58;61.33
63568;BME280;49715;42.386;20.434;2023-02-28T13:19:30;97856.81;;;8.62;61.61
63568;BME280;49715;42.386;20.434;2023-02-28T13:21:59;97849.78;;;8.62;61.76
63568;BME280;49715;42.386;20.434;2023-02-28T13:29:39;97841.25;;;8.70;61.43
63568;BME280;49715;42.386;20.434;2023-02-28T13:37:36;97849.38;;;8.88;61.24
63568;BME280;49715;42.386;20.434;2023-02-28T13:42:47;97845.81;;;8.89;60.99
63568;BME280;49715;42.386;20.434;2023-02-28T13:45:27;97843.56;;;8.84;60.75
63568;BME280;49715;42.386;20.434;2023-02-28T13:48:19;97841.44;;;8.78;60.73
63568;BME280;49715;42.386;20.434;2023-02-28T13:50:50;97843.88;;;8.70;61.16
63568;BME280;49715;42.386;20.434;2023-02-28T13:53:30;97830.03;;;8.68;61.17
63568;BME280;49715;42.386;20.434;2023-02-28T13:59:47;97839.38;;;8.82;61.14
63568;BME280;49715;42.386;20.434;2023-02-28T14:05:18;97830.28;;;8.86;60.89
63568;BME280;49715;42.386;20.434;2023-02-28T14:07:50;97828.47;;;8.86;60.71
63568;BME280;49715;42.386;20.434;2023-02-28T14:10:27;97839.59;;;8.90;60.75
63568;BME280;49715;42.386;20.434;2023-02-28T14:12:56;97827.50;;;8.87;60.61
63568;BME280;49715;42.386;20.434;2023-02-28T14:18:18;97823.38;;;8.85;60.62
63568;BME280;49715;42.386;20.434;2023-02-28T14:20:48;97823.41;;;8.94;60.29
63568;BME280;49715;42.386;20.434;2023-02-28T14:23:32;97823.53;;;8.93;60.32
63568;BME280;49715;42.386;20.434;2023-02-28T14:31:37;97830.97;;;8.88;60.35
63568;BME280;49715;42.386;20.434;2023-02-28T14:34:17;97826.81;;;8.85;60.47
63568;BME280;49715;42.386;20.434;2023-02-28T14:36:53;97828.72;;;8.83;60.39
63568;BME280;49715;42.386;20.434;2023-02-28T14:39:25;97821.13;;;8.80;60.44
63568;BME280;49715;42.386;20.434;2023-02-28T14:41:55;97835.28;;;8.89;60.22
63568;BME280;49715;42.386;20.434;2023-02-28T14:44:26;97826.00;;;8.85;60.28
63568;BME280;49715;42.386;20.434;2023-02-28T14:46:57;97827.06;;;8.82;60.27
63568;BME280;49715;42.386;20.434;2023-02-28T14:49:35;97831.34;;;8.83;60.35
63568;BME280;49715;42.386;20.434;2023-02-28T14:52:19;97830.66;;;8.81;60.30
63568;BME280;49715;42.386;20.434;2023-02-28T14:54:52;97817.22;;;8.74;60.38
63568;BME280;49715;42.386;20.434;2023-02-28T14:57:31;97833.25;;;8.71;60.33
63568;BME280;49715;42.386;20.434;2023-02-28T15:02:38;97826.81;;;8.85;60.41
63568;BME280;49715;42.386;20.434;2023-02-28T15:07:45;97819.53;;;8.89;59.94
63568;BME280;49715;42.386;20.434;2023-02-28T15:10:26;97822.25;;;8.87;60.22
63568;BME280;49715;42.386;20.434;2023-02-28T15:12:55;97814.81;;;8.92;60.09
63568;BME280;49715;42.386;20.434;2023-02-28T15:15:51;97811.75;;;8.87;59.79
63568;BME280;49715;42.386;20.434;2023-02-28T15:21:04;97796.66;;;8.80;60.14
63568;BME280;49715;42.386;20.434;2023-02-28T15:23:34;97811.75;;;8.87;60.00
63568;BME280;49715;42.386;20.434;2023-02-28T15:26:03;97795.53;;;8.82;60.00
63568;BME280;49715;42.386;20.434;2023-02-28T15:28:30;97810.81;;;8.88;60.05
63568;BME280;49715;42.386;20.434;2023-02-28T15:31:02;97807.22;;;8.89;60.00
63568;BME280;49715;42.386;20.434;2023-02-28T15:33:31;97816.06;;;8.88;59.99
63568;BME280;49715;42.386;20.434;2023-02-28T15:36:10;97812.13;;;8.83;60.09
63568;BME280;49715;42.386;20.434;2023-02-28T15:38:42;97814.22;;;8.79;60.07
63568;BME280;49715;42.386;20.434;2023-02-28T15:41:28;97801.56;;;8.73;60.02
63568;BME280;49715;42.386;20.434;2023-02-28T15:47:00;97809.00;;;8.68;60.46
63568;BME280;49715;42.386;20.434;2023-02-28T15:49:31;97803.31;;;8.63;60.58
63568;BME280;49715;42.386;20.434;2023-02-28T15:52:01;97807.44;;;8.56;60.63